Terminal Aerodrome Forecast
Issued by NWS Cheyenne, WY

Home | Current Version | Previous Version | Text Only | Print | Product List | Glossary On
Versions: 1 2 3 4 5 6 7 8 9 10 11 12 13 14 15 16 17 18 19 20 21 22 23 24 25 26 27 28 29 30 31 32 33 34 35 36 37 38 39 40 41
817
FTUS45 KCYS 171915 AAC
TAFCYS
TAF AMD
KCYS 171915Z 1719/1818 21012KT P6SM BKN080
      TEMPO 1720/1722 26020G30KT 4SM -RASN BKN025 OVC060
     FM172200 31015G25KT P6SM VCSH BKN100
     FM180300 36018G28KT 6SM -SN BKN050
     FM181000 32014KT P6SM SCT120
     FM181700 29017G26KT P6SM FEW250=

USA.gov is the U.S. government's official web portal to all federal, state and local government web resources and services.